Time;durP1;ratioP1;P1;durP2;ratioP2;P2;SDS_P1;SDS_P2;PMS_P1;PMS_P2;Temp;Humidity;BMP_temperature;BMP_pressure;BME280_temperature;BME280_humidity;BME280_pressure;Samples;Min_cycle;Max_cycle;Signal;HPM_P1;HPM_P2
2021/12/26 00:00:30;;;;;;;6.70;3.40;;;-5.60;99.90;;;;;;5011441;28;20049;-64
2021/12/26 00:02:57;;;;;;;9.80;3.73;;;-5.60;99.90;;;;;;5009758;28;20427;-63
2021/12/26 00:05:24;;;;;;;7.03;3.70;;;-5.60;99.90;;;;;;5009987;28;20050;-63
2021/12/26 00:07:50;;;;;;;8.50;4.00;;;-5.50;99.90;;;;;;5011142;28;20478;-65
2021/12/26 00:10:18;;;;;;;8.13;3.90;;;-5.50;99.90;;;;;;5011300;28;20049;-65
2021/12/26 00:12:44;;;;;;;6.07;3.63;;;-5.50;99.90;;;;;;5011048;28;20038;-65
2021/12/26 00:15:10;;;;;;;6.97;3.50;;;-5.50;99.90;;;;;;5011122;28;20037;-65
2021/12/26 00:17:36;;;;;;;5.37;3.37;;;-5.50;99.90;;;;;;5010176;28;20053;-65
2021/12/26 00:20:03;;;;;;;10.07;3.93;;;-5.50;99.90;;;;;;5011093;28;20034;-64
2021/12/26 00:22:29;;;;;;;7.43;4.20;;;-5.50;99.90;;;;;;5064452;23;20049;-65
2021/12/26 00:24:54;;;;;;;7.13;4.10;;;-5.50;99.90;;;;;;5013253;28;20041;-65
2021/12/26 00:27:20;;;;;;;9.13;3.73;;;-5.50;99.90;;;;;;5012906;28;20458;-65
2021/12/26 00:29:46;;;;;;;10.10;3.87;;;-5.50;99.90;;;;;;5030912;28;20044;-65
2021/12/26 00:32:12;;;;;;;7.50;4.00;;;-5.60;99.90;;;;;;5030692;28;20103;-65
2021/12/26 00:34:37;;;;;;;11.73;3.90;;;-5.60;99.90;;;;;;5029142;28;20037;-64
2021/12/26 00:37:05;;;;;;;8.10;3.50;;;-5.50;99.90;;;;;;5030785;28;20424;-65
2021/12/26 00:39:31;;;;;;;7.87;3.87;;;-5.50;99.90;;;;;;5029519;28;20053;-65
2021/12/26 00:41:57;;;;;;;10.37;4.20;;;-5.60;99.90;;;;;;5030473;28;20091;-65
2021/12/26 00:44:22;;;;;;;6.53;4.30;;;-5.60;99.90;;;;;;5029106;28;20045;-65
2021/12/26 00:46:50;;;;;;;6.57;3.67;;;-5.60;99.90;;;;;;5030365;28;20096;-65
2021/12/26 00:49:16;;;;;;;5.30;3.40;;;-5.60;99.90;;;;;;5030437;28;20401;-65
2021/12/26 00:51:41;;;;;;;9.23;4.07;;;-5.60;99.90;;;;;;5030546;28;20041;-65
2021/12/26 00:54:07;;;;;;;7.90;3.50;;;-5.60;99.90;;;;;;5030332;28;20120;-65
2021/12/26 00:56:32;;;;;;;5.40;3.40;;;-5.60;99.90;;;;;;5029012;28;20064;-65
2021/12/26 00:58:58;;;;;;;8.60;3.73;;;-5.50;99.90;;;;;;5029099;28;20056;-65
2021/12/26 01:01:24;;;;;;;5.60;3.30;;;-5.60;99.90;;;;;;5030635;28;20045;-65
2021/12/26 01:03:49;;;;;;;7.00;4.00;;;-5.50;99.90;;;;;;5030224;28;20038;-65
2021/12/26 01:06:15;;;;;;;5.07;3.23;;;-5.50;99.90;;;;;;5030011;28;20098;-65
2021/12/26 01:08:42;;;;;;;6.47;3.67;;;-5.50;99.90;;;;;;5030217;28;20485;-65
2021/12/26 01:11:19;;;;;;;5.10;3.47;;;-5.50;99.90;;;;;;5029065;28;20038;-65
2021/12/26 01:13:46;;;;;;;6.67;3.80;;;-5.50;99.90;;;;;;5030264;28;20045;-64
2021/12/26 01:16:13;;;;;;;7.80;3.90;;;-5.50;99.90;;;;;;5028752;28;20394;-64
2021/12/26 01:18:46;;;;;;;6.70;3.73;;;-5.50;99.90;;;;;;5028630;28;20053;-64
2021/12/26 01:23:49;;;;;;;;;;;-5.60;99.90;;;;;;5030456;28;20497;-65
2021/12/26 01:26:15;;;;;;;6.30;3.58;;;-5.60;99.90;;;;;;5028914;28;19921;-65
2021/12/26 01:28:40;;;;;;;6.43;3.53;;;-5.70;99.90;;;;;;5030084;28;20047;-65
2021/12/26 01:31:07;;;;;;;7.93;3.40;;;-5.70;99.90;;;;;;5029559;28;20393;-64
2021/12/26 01:33:33;;;;;;;5.63;3.47;;;-5.70;99.90;;;;;;5029881;28;20034;-65
2021/12/26 01:35:59;;;;;;;8.47;3.80;;;-5.70;99.90;;;;;;5029789;28;20037;-65
2021/12/26 01:38:25;;;;;;;8.83;4.43;;;-5.70;99.90;;;;;;5028697;28;20047;-65
2021/12/26 01:40:54;;;;;;;10.80;3.83;;;-5.70;99.90;;;;;;5029830;28;20033;-65
2021/12/26 01:43:26;;;;;;;7.20;3.50;;;-5.70;99.90;;;;;;5028709;28;20045;-65
2021/12/26 01:45:52;;;;;;;8.05;3.78;;;-5.70;99.90;;;;;;5029890;28;20041;-65
2021/12/26 01:48:18;;;;;;;7.53;4.37;;;-5.70;99.90;;;;;;5029819;28;20064;-65
2021/12/26 01:50:45;;;;;;;6.40;3.90;;;-5.70;99.90;;;;;;5029763;28;20095;-65
2021/12/26 01:53:12;;;;;;;10.67;3.80;;;-5.80;99.90;;;;;;5029451;28;20517;-64
2021/12/26 01:55:42;;;;;;;6.33;4.10;;;-5.80;99.90;;;;;;5028407;28;20132;-64
2021/12/26 01:58:11;;;;;;;7.30;4.00;;;-5.80;99.90;;;;;;5029554;28;20048;-64
2021/12/26 02:00:41;;;;;;;6.00;3.90;;;-5.90;99.90;;;;;;5029758;28;20033;-65
2021/12/26 02:03:07;;;;;;;8.57;4.10;;;-5.90;99.90;;;;;;5030607;28;20056;-65
2021/12/26 02:05:32;;;;;;;6.33;3.80;;;-5.90;99.90;;;;;;5033597;28;20035;-65
2021/12/26 02:07:58;;;;;;;7.23;3.80;;;-5.90;99.90;;;;;;5033349;28;20033;-65
2021/12/26 02:10:24;;;;;;;7.70;4.13;;;-5.90;99.90;;;;;;5033245;28;20080;-65
2021/12/26 02:12:49;;;;;;;8.20;4.10;;;-5.90;99.90;;;;;;5031888;28;20124;-65
2021/12/26 02:15:15;;;;;;;7.50;4.07;;;-5.90;99.90;;;;;;5032250;28;20045;-65
2021/12/26 02:17:41;;;;;;;9.13;4.73;;;-6.00;99.90;;;;;;5032509;28;20042;-65
2021/12/26 02:23:08;;;;;;;6.27;3.50;;;-5.90;99.90;;;;;;5029885;28;20049;-64
2021/12/26 02:28:16;;;;;;;6.63;4.10;;;-5.90;99.90;;;;;;5032928;28;20049;-64
2021/12/26 02:30:42;;;;;;;9.17;4.30;;;-5.90;99.90;;;;;;5031880;28;20053;-65
2021/12/26 02:33:11;;;;;;;6.87;4.23;;;-6.00;99.90;;;;;;5032640;28;20041;-65
2021/12/26 02:35:38;;;;;;;7.30;4.03;;;-6.00;99.90;;;;;;5031347;28;20127;-65
2021/12/26 02:38:04;;;;;;;7.63;4.43;;;-6.00;99.90;;;;;;5033092;28;20042;-64
2021/12/26 02:40:30;;;;;;;6.33;4.20;;;-6.00;99.90;;;;;;5031467;28;20482;-65
2021/12/26 02:42:56;;;;;;;7.57;4.50;;;-6.00;99.90;;;;;;5031076;28;20115;-64
2021/12/26 02:45:22;;;;;;;7.03;4.10;;;-6.10;99.90;;;;;;5032753;28;20091;-65
2021/12/26 02:47:49;;;;;;;10.47;4.50;;;-6.00;99.90;;;;;;5032637;28;20084;-65
2021/12/26 02:50:22;;;;;;;9.40;4.40;;;-6.00;99.90;;;;;;5032447;28;20052;-64
2021/12/26 02:52:49;;;;;;;7.77;4.20;;;-6.00;99.90;;;;;;5030923;28;20048;-64
2021/12/26 02:55:17;;;;;;;6.43;4.27;;;-6.00;99.90;;;;;;5032575;28;20053;-64
2021/12/26 02:57:52;;;;;;;10.10;4.20;;;-6.00;99.90;;;;;;5032588;28;20049;-64
2021/12/26 03:00:23;;;;;;;8.80;4.93;;;-6.00;99.90;;;;;;5032452;28;20099;-64
2021/12/26 03:02:52;;;;;;;8.23;4.53;;;-6.00;99.90;;;;;;5032240;28;20045;-64
2021/12/26 03:05:19;;;;;;;8.93;4.50;;;-6.10;99.90;;;;;;5031199;28;20041;-64
2021/12/26 03:07:46;;;;;;;7.00;4.43;;;-6.10;99.90;;;;;;5032343;28;20046;-64
2021/12/26 03:10:22;;;;;;;8.70;4.73;;;-6.10;99.90;;;;;;5032389;28;20037;-65
2021/12/26 03:12:56;;;;;;;7.20;4.67;;;-6.10;99.90;;;;;;5031933;28;20045;-64
2021/12/26 03:15:22;;;;;;;9.43;4.70;;;-6.00;99.90;;;;;;5031902;28;20045;-64
2021/12/26 03:17:48;;;;;;;10.43;4.60;;;-6.00;99.90;;;;;;5032210;28;20117;-64
2021/12/26 03:20:18;;;;;;;6.97;4.13;;;-5.90;99.90;;;;;;5030694;28;20446;-64
2021/12/26 03:22:44;;;;;;;8.17;4.30;;;-6.00;99.90;;;;;;5031682;28;20045;-64
2021/12/26 03:25:12;;;;;;;8.20;4.53;;;-5.90;99.90;;;;;;5030585;28;20052;-64
2021/12/26 03:27:37;;;;;;;7.43;4.30;;;-5.90;99.90;;;;;;5031647;28;20073;-64
2021/12/26 03:30:06;;;;;;;9.07;5.00;;;-5.90;99.90;;;;;;5032250;28;20460;-64
2021/12/26 03:32:32;;;;;;;7.83;4.70;;;-5.90;99.90;;;;;;5031337;28;20458;-64
2021/12/26 03:34:57;;;;;;;7.03;4.07;;;-5.90;99.90;;;;;;5031695;28;20037;-64
2021/12/26 03:37:23;;;;;;;8.13;4.70;;;-5.90;99.90;;;;;;5031669;28;20041;-64
2021/12/26 03:39:49;;;;;;;7.57;4.33;;;-5.90;99.90;;;;;;5031811;28;20413;-64
2021/12/26 03:42:15;;;;;;;8.83;4.83;;;-5.90;99.70;;;;;;5031353;28;20041;-64
2021/12/26 03:44:41;;;;;;;8.13;4.43;;;-5.90;99.70;;;;;;5031540;28;20571;-64
2021/12/26 03:47:07;;;;;;;8.07;4.70;;;-5.90;99.50;;;;;;5031507;28;20187;-64
2021/12/26 03:49:34;;;;;;;8.13;4.40;;;-5.90;99.70;;;;;;5031687;28;20505;-64
2021/12/26 03:51:59;;;;;;;8.73;4.50;;;-5.90;99.90;;;;;;5031281;28;20107;-64
2021/12/26 03:54:25;;;;;;;8.23;4.37;;;-6.00;99.90;;;;;;5029842;28;20479;-64
2021/12/26 03:56:50;;;;;;;8.13;4.67;;;-6.00;99.90;;;;;;5031074;28;20042;-64
2021/12/26 03:59:16;;;;;;;10.03;5.20;;;-5.90;99.70;;;;;;5030350;28;20053;-64
2021/12/26 04:01:42;;;;;;;11.93;5.20;;;-5.90;99.90;;;;;;5029986;28;20767;-64
2021/12/26 04:04:07;;;;;;;11.93;4.70;;;-5.90;99.80;;;;;;5029639;28;20517;-64
2021/12/26 04:06:33;;;;;;;7.83;5.00;;;-5.90;99.60;;;;;;5031140;28;20076;-64
2021/12/26 04:08:59;;;;;;;8.33;5.43;;;-5.90;99.60;;;;;;5031757;28;20116;-64
2021/12/26 04:11:25;;;;;;;7.63;4.67;;;-5.90;99.60;;;;;;5031026;28;20069;-64
2021/12/26 04:13:51;;;;;;;10.47;5.47;;;-5.80;99.50;;;;;;5031053;28;20528;-64
2021/12/26 04:16:17;;;;;;;8.83;4.73;;;-5.80;99.20;;;;;;5029754;28;20482;-64
2021/12/26 04:18:42;;;;;;;9.27;4.83;;;-5.80;99.40;;;;;;5029810;28;20063;-64
2021/12/26 04:21:08;;;;;;;7.60;4.90;;;-5.80;99.70;;;;;;5030704;28;20516;-64
2021/12/26 04:23:34;;;;;;;9.17;5.40;;;-5.80;99.30;;;;;;5029610;28;20079;-64
2021/12/26 04:26:00;;;;;;;10.70;5.83;;;-5.80;99.40;;;;;;5030074;28;20040;-64
2021/12/26 04:28:26;;;;;;;10.43;5.47;;;-5.80;99.40;;;;;;5030560;28;20404;-64
2021/12/26 04:30:53;;;;;;;8.20;4.90;;;-5.80;99.60;;;;;;5031002;28;20041;-64
2021/12/26 04:33:19;;;;;;;7.30;5.10;;;-5.80;99.90;;;;;;5029113;28;20037;-64
2021/12/26 04:35:45;;;;;;;10.40;5.10;;;-5.80;99.50;;;;;;5030525;28;20117;-64
2021/12/26 04:38:10;;;;;;;8.23;4.80;;;-5.80;99.10;;;;;;5030517;28;20468;-64
2021/12/26 04:40:36;;;;;;;8.27;5.07;;;-5.80;99.10;;;;;;5029483;28;20103;-64
2021/12/26 04:43:01;;;;;;;8.53;4.80;;;-5.70;98.80;;;;;;5030150;28;20661;-64
2021/12/26 04:45:27;;;;;;;7.83;4.97;;;-5.80;99.00;;;;;;5030559;28;20030;-64
2021/12/26 04:47:53;;;;;;;7.50;4.43;;;-5.80;99.30;;;;;;5030377;28;20509;-64
2021/12/26 04:50:22;;;;;;;8.83;4.80;;;-5.80;99.00;;;;;;5030336;28;20049;-65
2021/12/26 04:52:49;;;;;;;12.87;5.60;;;-5.70;98.90;;;;;;5030100;28;20045;-64
2021/12/26 04:55:21;;;;;;;7.20;5.00;;;-5.70;99.10;;;;;;5030130;28;20041;-64
2021/12/26 04:57:48;;;;;;;7.67;5.30;;;-5.70;99.00;;;;;;5029127;28;20379;-64
2021/12/26 05:00:18;;;;;;;9.50;5.13;;;-5.70;99.20;;;;;;5029187;28;20091;-64
2021/12/26 05:02:45;;;;;;;9.13;5.30;;;-5.80;99.50;;;;;;5029927;28;20042;-64
2021/12/26 05:05:13;;;;;;;9.07;5.17;;;-5.80;99.50;;;;;;5030083;28;20037;-64
2021/12/26 05:07:40;;;;;;;9.33;5.50;;;-5.80;99.20;;;;;;5029828;28;20042;-64
2021/12/26 05:10:07;;;;;;;7.90;5.07;;;-5.80;99.20;;;;;;5028825;28;20049;-65
2021/12/26 05:12:33;;;;;;;8.83;5.33;;;-5.80;98.80;;;;;;5028736;28;20041;-64
2021/12/26 05:15:01;;;;;;;12.13;5.70;;;-5.70;98.90;;;;;;5029824;28;20104;-64
2021/12/26 05:17:26;;;;;;;11.57;5.33;;;-5.70;98.90;;;;;;5028572;28;20496;-64
2021/12/26 05:19:52;;;;;;;10.40;5.40;;;-5.70;98.60;;;;;;5028840;28;20132;-64
2021/12/26 05:22:20;;;;;;;9.33;5.07;;;-5.70;98.30;;;;;;5029608;28;20545;-64
2021/12/26 05:24:45;;;;;;;7.97;5.10;;;-5.60;98.30;;;;;;5029914;28;20112;-64
2021/12/26 05:27:11;;;;;;;10.03;5.70;;;-5.60;98.30;;;;;;5029781;28;20557;-64
2021/12/26 05:29:37;;;;;;;8.60;5.23;;;-5.60;98.10;;;;;;5029872;28;20073;-64
2021/12/26 05:32:02;;;;;;;11.67;5.50;;;-5.60;98.10;;;;;;5029850;28;20038;-64
2021/12/26 05:34:28;;;;;;;9.40;5.83;;;-5.60;98.30;;;;;;5029509;28;20585;-64
2021/12/26 05:36:53;;;;;;;9.53;5.07;;;-5.60;98.20;;;;;;5029502;28;20045;-64
2021/12/26 05:39:19;;;;;;;9.83;5.37;;;-5.60;98.10;;;;;;5032083;28;20053;-64
2021/12/26 05:41:45;;;;;;;12.20;6.10;;;-5.60;98.00;;;;;;5032911;28;20719;-64
2021/12/26 05:44:10;;;;;;;9.57;5.53;;;-5.60;98.20;;;;;;5032320;28;20505;-64
2021/12/26 05:46:37;;;;;;;10.43;5.40;;;-5.70;98.20;;;;;;5031940;28;20557;-64
2021/12/26 05:49:03;;;;;;;10.63;5.53;;;-5.70;98.10;;;;;;5032221;28;20125;-64
2021/12/26 05:51:29;;;;;;;9.43;5.70;;;-5.70;98.20;;;;;;5030922;28;20080;-64
2021/12/26 05:53:55;;;;;;;11.30;5.60;;;-5.70;98.50;;;;;;5031278;28;20207;-64
2021/12/26 05:56:21;;;;;;;9.50;5.70;;;-5.70;98.70;;;;;;5031837;28;20049;-64
2021/12/26 05:58:46;;;;;;;9.43;5.70;;;-5.70;98.50;;;;;;5030603;28;20041;-64
2021/12/26 06:01:12;;;;;;;11.43;5.53;;;-5.70;98.50;;;;;;5031415;28;20041;-64
2021/12/26 06:03:38;;;;;;;9.63;6.00;;;-5.70;98.70;;;;;;5031574;28;20092;-64
2021/12/26 06:06:04;;;;;;;8.17;5.30;;;-5.80;98.70;;;;;;5031405;28;20591;-64
2021/12/26 06:08:30;;;;;;;8.40;5.60;;;-5.70;98.40;;;;;;5031626;28;20073;-64
2021/12/26 06:10:55;;;;;;;11.07;5.50;;;-5.70;97.90;;;;;;5031276;28;20096;-64
2021/12/26 06:13:21;;;;;;;9.60;5.20;;;-5.70;98.10;;;;;;5031213;28;20092;-64
2021/12/26 06:15:46;;;;;;;11.03;5.83;;;-5.70;98.20;;;;;;5031273;28;20037;-64
2021/12/26 06:18:12;;;;;;;12.17;5.60;;;-5.70;98.40;;;;;;5031201;28;20045;-64
2021/12/26 06:20:37;;;;;;;10.40;5.50;;;-5.60;97.90;;;;;;5029768;28;20060;-64
2021/12/26 06:23:03;;;;;;;8.97;4.97;;;-5.70;98.80;;;;;;5029490;28;20045;-65
2021/12/26 06:25:29;;;;;;;9.77;5.77;;;-5.60;97.90;;;;;;5030991;28;20501;-64
2021/12/26 06:27:55;;;;;;;10.90;5.63;;;-5.50;98.30;;;;;;5029684;28;20417;-64
2021/12/26 06:30:20;;;;;;;9.63;5.90;;;-5.50;97.90;;;;;;5029445;28;20067;-64
2021/12/26 06:32:46;;;;;;;9.27;5.60;;;-5.50;98.00;;;;;;5030908;28;20672;-64
2021/12/26 06:35:12;;;;;;;9.37;5.60;;;-5.50;97.70;;;;;;5029580;28;20052;-64
2021/12/26 06:37:38;;;;;;;12.03;6.03;;;-5.50;98.00;;;;;;5030881;28;20457;-64
2021/12/26 06:40:06;;;;;;;10.67;5.87;;;-5.50;98.00;;;;;;5029118;28;20539;-65
2021/12/26 06:42:33;;;;;;;10.60;6.50;;;-5.50;97.50;;;;;;5028650;28;20045;-64
2021/12/26 06:44:58;;;;;;;9.80;5.90;;;-5.50;98.60;;;;;;5028913;28;20124;-64
2021/12/26 06:47:25;;;;;;;7.93;5.20;;;-5.50;99.00;;;;;;5029801;28;20128;-64
2021/12/26 06:49:51;;;;;;;11.23;5.90;;;-5.60;99.20;;;;;;5028858;28;20041;-64
2021/12/26 06:52:16;;;;;;;11.63;5.97;;;-5.60;99.00;;;;;;5030045;28;20040;-64
2021/12/26 06:54:42;;;;;;;7.50;4.93;;;-5.60;98.90;;;;;;5030400;28;20697;-64
2021/12/26 06:57:08;;;;;;;14.20;6.23;;;-5.60;98.50;;;;;;5029871;28;20047;-64
2021/12/26 06:59:34;;;;;;;11.53;6.00;;;-5.60;98.80;;;;;;5029570;28;20045;-64
2021/12/26 07:01:59;;;;;;;13.30;6.30;;;-5.60;99.30;;;;;;5029565;28;20140;-64
2021/12/26 07:04:25;;;;;;;10.60;6.07;;;-5.70;99.30;;;;;;5029252;28;20038;-63
2021/12/26 07:06:50;;;;;;;9.87;5.80;;;-5.70;99.70;;;;;;5029909;28;20516;-63
2021/12/26 07:09:17;;;;;;;11.20;5.97;;;-5.80;99.60;;;;;;5029988;28;20072;-63
2021/12/26 07:11:42;;;;;;;9.43;5.83;;;-5.80;99.60;;;;;;5030803;28;20731;-64
2021/12/26 07:14:08;;;;;;;11.60;6.23;;;-5.80;99.60;;;;;;5030419;28;20132;-64
2021/12/26 07:16:34;;;;;;;11.27;6.33;;;-5.80;99.50;;;;;;5032028;28;20037;-63
2021/12/26 07:18:59;;;;;;;9.53;5.57;;;-5.80;99.90;;;;;;5030554;28;20041;-64
2021/12/26 07:21:25;;;;;;;14.27;6.87;;;-5.80;99.70;;;;;;5031961;28;20076;-64
2021/12/26 07:23:51;;;;;;;10.47;5.80;;;-5.80;99.90;;;;;;5031840;28;20050;-64
2021/12/26 07:26:17;;;;;;;9.43;6.33;;;-5.80;99.90;;;;;;5031857;28;20045;-63
2021/12/26 07:28:43;;;;;;;10.67;5.97;;;-5.80;99.90;;;;;;5030705;28;20076;-64
2021/12/26 07:31:09;;;;;;;15.53;7.10;;;-5.70;99.90;;;;;;5031731;28;20486;-64
2021/12/26 07:33:34;;;;;;;12.23;6.60;;;-5.80;99.90;;;;;;5031278;28;20115;-63
2021/12/26 07:36:00;;;;;;;11.83;6.60;;;-5.80;99.90;;;;;;5030542;28;20240;-64
2021/12/26 07:38:25;;;;;;;11.53;6.40;;;-5.80;99.90;;;;;;5031883;28;20076;-64
2021/12/26 07:40:51;;;;;;;12.80;6.20;;;-5.80;99.90;;;;;;5031646;28;20045;-64
2021/12/26 07:43:16;;;;;;;9.87;6.53;;;-5.70;99.90;;;;;;5030180;28;20049;-64
2021/12/26 07:45:42;;;;;;;10.30;5.93;;;-5.70;99.90;;;;;;5031537;28;20049;-64
2021/12/26 07:48:08;;;;;;;13.23;7.20;;;-5.70;99.90;;;;;;5031270;28;20433;-63
2021/12/26 07:50:33;;;;;;;11.83;6.73;;;-5.70;99.90;;;;;;5030206;28;20073;-64
2021/12/26 07:53:05;;;;;;;11.43;6.17;;;-5.70;99.80;;;;;;5031104;28;20124;-64
2021/12/26 07:55:31;;;;;;;13.80;7.03;;;-5.70;99.50;;;;;;5030024;28;20046;-65
2021/12/26 07:57:56;;;;;;;12.03;6.83;;;-5.60;99.60;;;;;;5031473;28;20048;-64
2021/12/26 08:00:22;;;;;;;11.37;6.50;;;-5.60;99.30;;;;;;5030456;28;20038;-64
2021/12/26 08:02:48;;;;;;;10.80;6.40;;;-5.60;99.40;;;;;;5030735;28;20469;-64
2021/12/26 08:05:15;;;;;;;10.73;6.80;;;-5.60;99.70;;;;;;5030074;28;20095;-64
2021/12/26 08:07:41;;;;;;;12.07;7.00;;;-5.60;99.80;;;;;;5031211;28;20052;-64
2021/12/26 08:10:07;;;;;;;15.17;6.87;;;-5.60;99.70;;;;;;5031245;28;20033;-64
2021/12/26 08:12:33;;;;;;;9.90;6.40;;;-5.60;99.80;;;;;;5030804;28;20054;-64
2021/12/26 08:15:01;;;;;;;14.23;6.83;;;-5.50;99.90;;;;;;5030928;28;20425;-64
2021/12/26 08:17:27;;;;;;;10.57;6.50;;;-5.50;99.90;;;;;;5029438;28;20045;-64
2021/12/26 08:19:52;;;;;;;9.73;6.40;;;-5.50;99.90;;;;;;5031292;28;20069;-64
2021/12/26 08:22:18;;;;;;;11.73;6.57;;;-5.50;99.70;;;;;;5030675;28;20060;-64
2021/12/26 08:24:44;;;;;;;10.67;6.73;;;-5.40;99.90;;;;;;5030631;28;20444;-63
2021/12/26 08:27:09;;;;;;;12.40;7.03;;;-5.40;99.90;;;;;;5030649;28;20042;-64
2021/12/26 08:29:35;;;;;;;14.00;7.97;;;-5.40;99.90;;;;;;5030805;28;20413;-64
2021/12/26 08:32:01;;;;;;;12.70;7.03;;;-5.30;99.30;;;;;;5030314;28;20042;-64
2021/12/26 08:34:27;;;;;;;14.47;7.67;;;-5.30;99.40;;;;;;5030585;28;20046;-64
2021/12/26 08:36:59;;;;;;;12.60;7.10;;;-5.20;99.40;;;;;;5030511;28;20041;-64
2021/12/26 08:39:37;;;;;;;12.80;6.87;;;-5.20;99.20;;;;;;5030727;28;20097;-64
2021/12/26 08:42:04;;;;;;;11.13;6.60;;;-5.20;99.10;;;;;;5030528;28;20038;-64
2021/12/26 08:44:29;;;;;;;13.43;7.43;;;-5.10;99.00;;;;;;5030138;28;20061;-64
2021/12/26 08:46:55;;;;;;;12.23;7.17;;;-5.10;99.20;;;;;;5030275;28;20680;-64
2021/12/26 08:49:21;;;;;;;12.73;7.10;;;-5.00;98.70;;;;;;5030407;28;20037;-64
2021/12/26 08:51:47;;;;;;;12.23;7.50;;;-5.00;99.00;;;;;;5029442;28;20034;-64
2021/12/26 08:54:13;;;;;;;14.93;6.97;;;-4.90;99.20;;;;;;5030100;28;20044;-64
2021/12/26 08:56:39;;;;;;;9.87;6.63;;;-4.90;99.30;;;;;;5030078;28;20041;-64
2021/12/26 08:59:05;;;;;;;12.87;7.37;;;-4.80;99.00;;;;;;5029938;28;20037;-64
2021/12/26 09:01:32;;;;;;;14.63;7.67;;;-4.80;99.00;;;;;;5030469;28;20476;-64
2021/12/26 09:03:59;;;;;;;13.33;7.30;;;-4.70;98.60;;;;;;5029274;28;20506;-63
2021/12/26 09:06:24;;;;;;;12.60;6.83;;;-4.60;98.30;;;;;;5029954;28;20041;-64
2021/12/26 09:08:50;;;;;;;13.67;7.60;;;-4.60;98.10;;;;;;5028668;28;20041;-64
2021/12/26 09:11:16;;;;;;;11.30;7.13;;;-4.50;98.10;;;;;;5030045;28;20042;-64
2021/12/26 09:13:43;;;;;;;16.10;7.43;;;-4.50;98.20;;;;;;5029498;28;20056;-64
2021/12/26 09:16:09;;;;;;;11.70;6.53;;;-4.40;97.60;;;;;;5030070;28;20064;-64
2021/12/26 09:18:34;;;;;;;14.00;7.17;;;-4.30;97.50;;;;;;5030003;28;20140;-64
2021/12/26 09:21:00;;;;;;;10.93;7.23;;;-4.30;96.80;;;;;;5029939;28;20769;-64
2021/12/26 09:23:26;;;;;;;16.73;8.20;;;-4.30;96.50;;;;;;5029571;28;20048;-64
2021/12/26 09:25:51;;;;;;;11.37;6.80;;;-4.20;97.20;;;;;;5028464;28;20105;-64
2021/12/26 09:28:17;;;;;;;12.33;7.57;;;-4.10;97.30;;;;;;5029457;28;20033;-64
2021/12/26 09:30:42;;;;;;;11.87;7.33;;;-4.10;97.60;;;;;;5029996;28;20041;-64
2021/12/26 09:33:08;;;;;;;12.90;7.67;;;-4.10;97.30;;;;;;5029621;28;20045;-64
2021/12/26 09:35:33;;;;;;;15.37;7.90;;;-4.00;97.70;;;;;;5029693;28;20493;-65
2021/12/26 09:37:59;;;;;;;11.67;7.40;;;-4.00;97.30;;;;;;5028296;28;20598;-65
2021/12/26 09:40:26;;;;;;;15.67;7.07;;;-3.90;97.10;;;;;;5028495;28;20034;-65
2021/12/26 09:42:52;;;;;;;13.90;8.23;;;-3.80;96.60;;;;;;5029337;28;20172;-64
2021/12/26 09:45:18;;;;;;;14.87;7.40;;;-3.80;97.20;;;;;;5028625;28;20049;-65
2021/12/26 09:47:45;;;;;;;12.80;7.25;;;-3.70;97.30;;;;;;5028208;28;20045;-65
2021/12/26 09:50:13;;;;;;;14.23;7.33;;;-3.70;97.60;;;;;;5029679;28;20049;-65
2021/12/26 09:52:47;;;;;;;13.23;6.57;;;-3.60;95.90;;;;;;5028076;28;20475;-65
2021/12/26 09:55:14;;;;;;;11.63;7.37;;;-3.60;95.90;;;;;;5029228;28;20046;-65
2021/12/26 09:57:40;;;;;;;12.63;7.03;;;-3.60;97.00;;;;;;5028151;28;20088;-65
2021/12/26 10:00:19;;;;;;;13.45;7.43;;;-3.50;96.40;;;;;;5029500;28;20037;-64
2021/12/26 10:02:45;;;;;;;12.30;7.20;;;-3.40;96.30;;;;;;5029238;28;20034;-65
2021/12/26 10:05:10;;;;;;;13.07;7.60;;;-3.30;97.00;;;;;;5028134;28;20042;-65
2021/12/26 10:07:36;;;;;;;14.03;7.00;;;-3.30;97.60;;;;;;5029432;28;20053;-65
2021/12/26 10:10:06;;;;;;;12.23;7.17;;;-3.30;97.60;;;;;;5029189;28;20602;-65
2021/12/26 10:12:39;;;;;;;13.52;7.45;;;-3.20;96.90;;;;;;5029224;28;20147;-66
2021/12/26 10:15:05;;;;;;;12.50;7.18;;;-3.20;96.90;;;;;;5029448;28;20038;-65
2021/12/26 10:17:31;;;;;;;14.73;7.03;;;-3.10;97.00;;;;;;5028138;28;20552;-65
2021/12/26 10:20:05;;;;;;;12.70;6.63;;;-3.10;97.00;;;;;;5029333;28;20053;-65
2021/12/26 10:22:30;;;;;;;12.30;6.95;;;-3.00;95.80;;;;;;5029005;28;20265;-65
2021/12/26 10:24:56;;;;;;;13.38;7.47;;;-3.00;96.60;;;;;;5031901;28;20571;-65
2021/12/26 10:27:28;;;;;;;11.30;6.97;;;-2.90;96.60;;;;;;5025793;28;20042;-64
2021/12/26 10:29:56;;;;;;;12.73;7.25;;;-2.90;96.40;;;;;;5022338;28;20038;-64
2021/12/26 10:32:23;;;;;;;13.68;7.40;;;-2.80;97.30;;;;;;5022156;28;20041;-65
2021/12/26 10:35:18;;;;;;;12.90;7.82;;;-2.70;97.10;;;;;;5026603;28;20064;-64
2021/12/26 10:37:49;;;;;;;13.63;7.90;;;-2.70;97.20;;;;;;5012233;28;20300;-64
2021/12/26 10:40:24;;;;;;;14.07;8.65;;;-2.60;96.60;;;;;;5023590;28;20041;-64
2021/12/26 10:42:56;;;;;;;13.52;7.50;;;-2.60;97.20;;;;;;5023083;28;20038;-64
2021/12/26 10:45:28;;;;;;;16.25;8.70;;;-2.60;96.30;;;;;;5016988;28;20041;-64
2021/12/26 10:47:57;;;;;;;14.77;8.10;;;-2.50;96.30;;;;;;5012872;28;20041;-64
2021/12/26 10:50:26;;;;;;;14.65;8.57;;;-2.50;95.80;;;;;;5012920;28;20044;-64
2021/12/26 10:52:57;;;;;;;15.07;8.32;;;-2.40;97.00;;;;;;5011225;28;20096;-64
2021/12/26 10:55:47;;;;;;;11.10;6.72;;;-2.40;96.50;;;;;;5011718;28;20481;-66
2021/12/26 10:58:15;;;;;;;14.88;7.80;;;-2.40;95.50;;;;;;5011453;28;20045;-64
2021/12/26 11:00:46;;;;;;;13.68;7.20;;;-2.30;97.10;;;;;;5012677;28;20046;-64
2021/12/26 11:03:22;;;;;;;12.90;8.20;;;-2.30;96.10;;;;;;5013831;28;20038;-64
2021/12/26 11:05:50;;;;;;;15.40;7.15;;;-2.30;95.60;;;;;;5023081;28;20486;-64
2021/12/26 11:08:24;;;;;;;12.52;6.85;;;-2.30;96.20;;;;;;5021331;28;20041;-64
2021/12/26 11:10:54;;;;;;;13.48;7.88;;;-2.20;95.60;;;;;;5021781;28;20422;-64
2021/12/26 11:13:31;;;;;;;13.80;7.13;;;-2.20;96.00;;;;;;5016117;28;20065;-63
2021/12/26 11:16:06;;;;;;;13.23;8.10;;;-2.10;95.60;;;;;;5025368;28;20609;-64
2021/12/26 11:18:33;;;;;;;14.15;8.38;;;-2.00;97.00;;;;;;5027547;28;20048;-64
2021/12/26 11:21:13;;;;;;;11.75;7.10;;;-1.90;97.10;;;;;;5032149;28;20197;-64
2021/12/26 11:23:40;;;;;;;13.10;7.57;;;-1.80;96.50;;;;;;5030610;28;20044;-64
2021/12/26 11:26:08;;;;;;;15.50;7.85;;;-1.80;96.10;;;;;;5032014;28;20037;-64
2021/12/26 11:28:37;;;;;;;12.40;7.28;;;-1.80;95.70;;;;;;5030397;28;20106;-63
2021/12/26 11:31:06;;;;;;;14.88;8.13;;;-1.70;96.80;;;;;;5027489;28;20042;-63
2021/12/26 11:33:34;;;;;;;12.82;7.70;;;-1.70;96.90;;;;;;5020462;28;20064;-63
2021/12/26 11:36:03;;;;;;;12.73;7.38;;;-1.60;95.70;;;;;;5019425;28;20040;-63
2021/12/26 11:38:29;;;;;;;16.63;7.88;;;-1.60;96.80;;;;;;5016978;28;20049;-63
2021/12/26 11:41:00;;;;;;;13.32;7.05;;;-1.60;96.60;;;;;;5014464;28;20490;-63
2021/12/26 11:43:55;;;;;;;13.13;7.53;;;-1.50;97.00;;;;;;5011631;28;20108;-63
2021/12/26 11:46:42;;;;;;;13.80;8.18;;;-1.40;96.30;;;;;;5011921;28;20053;-63
2021/12/26 11:49:33;;;;;;;12.88;7.47;;;-1.50;96.80;;;;;;5011915;28;20151;-63
2021/12/26 11:52:08;;;;;;;15.73;8.13;;;-1.40;97.10;;;;;;5010137;28;20054;-63
2021/12/26 11:54:52;;;;;;;14.57;8.48;;;-1.30;96.40;;;;;;5010158;28;20052;-63
2021/12/26 11:57:36;;;;;;;13.25;7.63;;;-1.30;96.80;;;;;;5011595;28;20457;-64
2021/12/26 12:00:25;;;;;;;14.00;7.97;;;-1.30;96.10;;;;;;5020952;28;20084;-63
2021/12/26 12:02:53;;;;;;;14.95;8.02;;;-1.30;96.00;;;;;;5014041;28;20041;-63
2021/12/26 12:05:23;;;;;;;13.70;7.40;;;-1.20;96.80;;;;;;5030154;28;20501;-63
2021/12/26 12:07:54;;;;;;;15.77;7.95;;;-1.20;97.00;;;;;;5031069;28;20569;-63
2021/12/26 12:11:01;;;;;;;13.05;8.20;;;-1.10;97.40;;;;;;5029784;28;20120;-64
2021/12/26 12:13:27;;;;;;;17.48;8.40;;;-1.10;96.40;;;;;;5029530;28;20052;-63
2021/12/26 12:15:59;;;;;;;13.68;7.80;;;-1.10;96.30;;;;;;5031067;28;20042;-63
2021/12/26 12:18:37;;;;;;;13.18;7.82;;;-1.10;96.20;;;;;;5029735;28;20183;-63
2021/12/26 12:21:19;;;;;;;15.52;8.13;;;-1.10;97.10;;;;;;5023688;28;20497;-63
2021/12/26 12:24:07;;;;;;;12.45;7.38;;;-1.00;95.80;;;;;;5030580;28;20080;-63
2021/12/26 12:26:57;;;;;;;14.88;7.97;;;-1.00;95.90;;;;;;5025693;28;20073;-62
2021/12/26 12:29:29;;;;;;;13.70;6.95;;;-1.00;95.70;;;;;;5007105;28;20127;-63
2021/12/26 12:32:21;;;;;;;;;;;-1.00;96.40;;;;;;5019652;28;20045;-64
2021/12/26 12:34:57;;;;;;;13.90;8.10;;;-0.90;96.90;;;;;;5015433;28;19918;-63
2021/12/26 12:37:46;;;;;;;12.35;7.85;;;-0.90;97.20;;;;;;5019047;28;20041;-64
2021/12/26 12:40:25;;;;;;;13.00;7.85;;;-0.80;96.90;;;;;;5019360;28;20034;-64
2021/12/26 12:43:03;;;;;;;13.27;7.97;;;-0.80;96.90;;;;;;5019058;28;20041;-64
2021/12/26 12:45:29;;;;;;;12.95;7.72;;;-0.80;96.70;;;;;;5018498;28;20033;-63
2021/12/26 12:48:26;;;;;;;13.98;8.13;;;-0.70;97.20;;;;;;5011776;28;20042;-63
2021/12/26 12:50:55;;;;;;;12.50;7.28;;;-0.80;97.10;;;;;;5009703;28;20072;-63
2021/12/26 12:53:43;;;;;;;12.52;8.02;;;-0.80;96.70;;;;;;5009127;28;20482;-63